createdAt,value
2019-05-02T00:02:01.178Z,12.30
2019-05-02T00:04:30.787Z,12.33
2019-05-02T00:07:09.620Z,12.32
2019-05-02T00:09:47.126Z,12.33
2019-05-02T00:12:19.837Z,12.28
2019-05-02T00:14:49.894Z,12.33
2019-05-02T00:17:25.571Z,12.24
2019-05-02T00:19:52.402Z,12.18
2019-05-02T00:22:23.149Z,12.22
2019-05-02T00:24:53.405Z,12.14
2019-05-02T00:27:24.815Z,12.12
2019-05-02T00:29:58.672Z,12.14
2019-05-02T00:32:26.682Z,12.19
2019-05-02T00:34:57.200Z,12.20
2019-05-02T00:37:27.361Z,12.26
2019-05-02T00:39:57.031Z,12.22
2019-05-02T00:42:26.696Z,12.20
2019-05-02T00:44:56.589Z,12.09
2019-05-02T00:47:33.717Z,12.14
2019-05-02T00:50:06.305Z,12.08
2019-05-02T00:52:37.794Z,12.17
2019-05-02T00:55:08.186Z,12.14
2019-05-02T00:57:38.747Z,12.18
2019-05-02T01:00:13.369Z,12.22
2019-05-02T01:02:52.830Z,12.11
2019-05-02T01:05:25.857Z,12.21
2019-05-02T01:08:01.013Z,12.13
2019-05-02T01:10:35.075Z,12.13
2019-05-02T01:13:05.297Z,12.19
2019-05-02T01:15:39.025Z,12.23
2019-05-02T01:18:07.995Z,12.29
2019-05-02T01:20:38.095Z,12.25
2019-05-02T01:23:08.327Z,12.12
2019-05-02T01:25:40.418Z,12.18
2019-05-02T01:28:29.136Z,12.11
2019-05-02T01:31:26.510Z,12.07
2019-05-02T01:34:19.214Z,12.07
2019-05-02T01:36:56.855Z,11.96
2019-05-02T01:39:26.827Z,11.92
2019-05-02T01:41:59.958Z,11.79
2019-05-02T01:44:31.207Z,11.76
2019-05-02T01:47:01.415Z,11.69
2019-05-02T01:49:31.491Z,11.74
2019-05-02T01:52:02.733Z,11.74
2019-05-02T01:54:32.674Z,11.04
2019-05-02T01:57:03.915Z,11.17
2019-05-02T01:59:35.128Z,11.77
2019-05-02T02:02:05.240Z,11.69
2019-05-02T02:04:36.249Z,11.67
2019-05-02T02:07:06.482Z,11.64
2019-05-02T02:09:38.944Z,11.66
2019-05-02T02:12:11.461Z,11.69
2019-05-02T02:14:41.166Z,11.61
2019-05-02T02:17:15.478Z,11.68
2019-05-02T02:19:48.449Z,11.64
2019-05-02T02:22:33.749Z,11.59
2019-05-02T02:25:38.726Z,11.61
2019-05-02T02:28:10.234Z,11.54
2019-05-02T02:30:40.432Z,11.51
2019-05-02T02:33:13.241Z,11.57
2019-05-02T02:35:49.946Z,11.49
2019-05-02T02:38:16.397Z,11.48
2019-05-02T02:40:46.507Z,11.40
2019-05-02T02:43:32.942Z,11.38
2019-05-02T02:46:15.111Z,11.26
2019-05-02T02:48:45.240Z,11.25
2019-05-02T02:51:24.041Z,11.31
2019-05-02T02:53:46.606Z,11.29
2019-05-02T02:56:16.730Z,11.19
2019-05-02T02:58:48.011Z,11.22
2019-05-02T03:01:27.781Z,11.24
2019-05-02T03:03:50.493Z,11.20
2019-05-02T03:06:19.979Z,11.20
2019-05-02T03:08:49.767Z,11.22
2019-05-02T03:11:23.478Z,11.15
2019-05-02T03:14:09.250Z,11.22
2019-05-02T03:16:45.568Z,11.24
2019-05-02T03:19:14.774Z,11.31
2019-05-02T03:22:00.329Z,11.29
2019-05-02T03:24:27.477Z,11.29
2019-05-02T03:26:58.461Z,11.20
2019-05-02T03:29:39.226Z,11.20
2019-05-02T03:32:14.221Z,11.25
2019-05-02T03:34:47.965Z,11.31
2019-05-02T03:37:10.760Z,11.30
2019-05-02T03:39:41.639Z,11.30
2019-05-02T03:42:12.354Z,11.34
2019-05-02T03:44:41.911Z,11.25
2019-05-02T03:47:14.192Z,11.20
2019-05-02T03:49:48.733Z,11.24
2019-05-02T03:52:16.205Z,11.23
2019-05-02T03:54:50.294Z,11.28
2019-05-02T03:57:31.667Z,11.34
2019-05-02T03:59:53.914Z,11.18
2019-05-02T04:02:24.934Z,11.20
2019-05-02T04:05:00.405Z,11.23
2019-05-02T04:07:39.722Z,11.17
2019-05-02T04:10:01.680Z,11.08
2019-05-02T04:12:32.927Z,11.13
2019-05-02T04:15:02.924Z,11.10
2019-05-02T04:17:35.304Z,11.13
2019-05-02T04:20:09.372Z,11.07
2019-05-02T04:22:42.675Z,11.12
2019-05-02T04:25:11.869Z,11.16
2019-05-02T04:27:42.374Z,11.19
2019-05-02T04:30:14.222Z,11.06
2019-05-02T04:32:49.751Z,11.07
2019-05-02T04:35:15.810Z,11.04
2019-05-02T04:37:45.611Z,11.11
2019-05-02T04:40:18.807Z,11.11
2019-05-02T04:42:51.263Z,11.22
2019-05-02T04:45:29.053Z,11.05
2019-05-02T04:47:58.611Z,11.02
2019-05-02T04:50:29.417Z,11.09
2019-05-02T04:53:01.394Z,11.16
2019-05-02T04:55:33.454Z,10.98
2019-05-02T04:58:03.235Z,10.99
2019-05-02T05:00:35.076Z,10.98
2019-05-02T05:03:15.262Z,11.02
2019-05-02T05:05:40.378Z,11.02
2019-05-02T05:08:17.480Z,11.09
2019-05-02T05:10:45.045Z,11.06
2019-05-02T05:13:19.723Z,10.95
2019-05-02T05:15:51.194Z,11.11
2019-05-02T05:18:18.539Z,11.12
2019-05-02T05:20:52.934Z,10.94
2019-05-02T05:23:51.731Z,11.02
2019-05-02T05:26:20.611Z,11.13
2019-05-02T05:28:53.281Z,11.03
2019-05-02T05:31:26.416Z,11.14
2019-05-02T05:33:57.871Z,11.17
2019-05-02T05:36:32.569Z,11.19
2019-05-02T05:39:02.919Z,11.09
2019-05-02T05:41:31.451Z,10.98
2019-05-02T05:44:05.043Z,11.09
2019-05-02T05:46:40.606Z,11.04
2019-05-02T05:49:12.587Z,11.04
2019-05-02T05:51:38.314Z,11.19
2019-05-02T05:54:12.601Z,11.15
2019-05-02T05:56:43.355Z,11.18
2019-05-02T05:59:14.251Z,11.25
2019-05-02T06:01:44.602Z,11.38
2019-05-02T06:04:24.018Z,11.42
2019-05-02T06:06:54.138Z,11.38
2019-05-02T06:09:26.382Z,11.24
2019-05-02T06:11:56.690Z,11.33
2019-05-02T06:14:26.901Z,11.23
2019-05-02T06:16:57.561Z,11.32
2019-05-02T06:19:27.278Z,11.42
2019-05-02T06:21:57.314Z,11.33
2019-05-02T06:24:27.363Z,11.32
2019-05-02T06:26:56.914Z,11.37
2019-05-02T06:29:27.705Z,11.54
2019-05-02T06:32:01.872Z,11.59
2019-05-02T06:34:32.554Z,11.58
2019-05-02T06:37:02.907Z,11.58
2019-05-02T06:39:33.253Z,11.61
2019-05-02T06:42:03.012Z,11.73
2019-05-02T06:44:33.131Z,11.83
2019-05-02T06:47:04.281Z,11.54
2019-05-02T06:49:34.791Z,11.71
2019-05-02T06:52:04.897Z,11.68
2019-05-02T06:54:34.841Z,11.57
2019-05-02T06:57:04.833Z,11.63
2019-05-02T06:59:35.779Z,11.82
2019-05-02T07:02:06.593Z,12.00
2019-05-02T07:04:37.219Z,11.88
2019-05-02T07:07:07.348Z,11.91
2019-05-02T07:09:40.934Z,11.74
2019-05-02T07:12:14.815Z,11.76
2019-05-02T07:14:45.726Z,11.65
2019-05-02T07:17:39.307Z,11.62
2019-05-02T07:20:10.632Z,11.57
2019-05-02T07:22:45.462Z,11.76
2019-05-02T07:25:17.012Z,11.75
2019-05-02T07:27:48.230Z,11.73
2019-05-02T07:30:18.261Z,11.72
2019-05-02T07:32:47.991Z,11.56
2019-05-02T07:35:19.259Z,11.43
2019-05-02T07:37:50.122Z,11.46
2019-05-02T07:40:21.366Z,11.22
2019-05-02T07:42:51.506Z,11.14
2019-05-02T07:45:21.576Z,11.26
2019-05-02T07:47:53.465Z,11.31
2019-05-02T07:50:23.393Z,11.20
2019-05-02T07:53:04.371Z,11.13
2019-05-02T07:55:35.436Z,11.25
2019-05-02T07:58:06.974Z,11.02
2019-05-02T08:00:37.161Z,10.92
2019-05-02T08:03:06.207Z,10.37
2019-05-02T08:05:36.067Z,9.90
2019-05-02T08:08:05.552Z,9.82
2019-05-02T08:10:35.441Z,10.07
2019-05-02T08:13:05.189Z,9.96
2019-05-02T08:15:35.517Z,9.41
2019-05-02T08:18:08.606Z,9.41
2019-05-02T08:20:38.158Z,9.44
2019-05-02T08:23:08.430Z,9.52
2019-05-02T08:25:41.446Z,9.55
2019-05-02T08:28:33.945Z,9.40
2019-05-02T08:31:03.699Z,9.31
2019-05-02T08:33:34.777Z,9.39
2019-05-02T08:36:04.614Z,9.38
2019-05-02T08:38:34.708Z,9.37
2019-05-02T08:41:04.272Z,9.41
2019-05-02T08:43:33.982Z,8.69
2019-05-02T08:46:04.127Z,9.31
2019-05-02T08:48:36.594Z,9.38
2019-05-02T08:51:06.510Z,9.44
2019-05-02T08:53:36.084Z,9.49
2019-05-02T08:56:05.717Z,9.55
2019-05-02T08:58:35.739Z,9.82
2019-05-02T09:01:09.180Z,9.89
2019-05-02T09:03:54.765Z,9.88
2019-05-02T09:06:08.806Z,9.95
2019-05-02T09:08:38.915Z,10.08
2019-05-02T09:11:14.044Z,10.32
2019-05-02T09:13:42.073Z,10.52
2019-05-02T09:16:12.139Z,10.37
2019-05-02T09:18:51.795Z,10.49
2019-05-02T09:21:18.913Z,10.72
2019-05-02T09:23:48.643Z,10.77
2019-05-02T09:26:31.981Z,10.80
2019-05-02T09:28:51.718Z,10.98
2019-05-02T09:31:22.722Z,11.06
2019-05-02T09:33:55.519Z,11.21
2019-05-02T09:36:25.900Z,11.52
2019-05-02T09:38:57.685Z,10.60
2019-05-02T09:41:32.427Z,11.34
2019-05-02T09:43:59.064Z,11.60
2019-05-02T09:46:29.771Z,11.46
2019-05-02T09:49:02.472Z,11.59
2019-05-02T09:51:33.707Z,11.73
2019-05-02T09:54:06.484Z,11.52
2019-05-02T09:56:36.484Z,11.70
2019-05-02T09:59:24.320Z,11.59
2019-05-02T10:01:42.229Z,11.54
2019-05-02T10:04:12.732Z,11.39
2019-05-02T10:06:42.953Z,11.59
2019-05-02T10:09:13.378Z,11.76
2019-05-02T10:11:43.399Z,11.95
2019-05-02T10:14:14.428Z,11.96
2019-05-02T10:16:44.438Z,11.73
2019-05-02T10:19:13.928Z,11.75
2019-05-02T10:21:47.001Z,11.85
2019-05-02T10:24:14.858Z,11.98
2019-05-02T10:26:44.467Z,11.77
2019-05-02T10:29:15.808Z,11.86
2019-05-02T10:31:45.634Z,11.92
2019-05-02T10:34:17.698Z,11.49
2019-05-02T10:36:51.948Z,11.62
2019-05-02T10:39:18.206Z,11.91
2019-05-02T10:41:48.251Z,11.67
2019-05-02T10:44:17.841Z,11.76
2019-05-02T10:46:58.651Z,11.89
2019-05-02T10:49:49.635Z,12.07
2019-05-02T10:52:21.583Z,12.06
2019-05-02T10:54:52.844Z,12.10
2019-05-02T10:57:25.241Z,12.32
2019-05-02T10:59:56.222Z,12.31
2019-05-02T11:02:44.987Z,12.07
2019-05-02T11:05:22.505Z,11.74
2019-05-02T11:07:56.599Z,11.63
2019-05-02T11:10:23.812Z,11.60
2019-05-02T11:13:05.156Z,11.43
2019-05-02T11:15:57.743Z,11.41
2019-05-02T11:18:40.195Z,11.53
2019-05-02T11:21:06.798Z,11.39
2019-05-02T11:23:32.851Z,11.68
2019-05-02T11:26:02.472Z,11.82
2019-05-02T11:28:37.047Z,11.67
2019-05-02T11:31:08.614Z,11.68
2019-05-02T11:33:39.220Z,11.75
2019-05-02T11:36:13.750Z,11.84
2019-05-02T11:38:49.225Z,11.88
2019-05-02T11:41:17.615Z,11.77
2019-05-02T11:43:47.413Z,11.94
2019-05-02T11:46:22.090Z,11.87
2019-05-02T11:48:56.345Z,12.04
2019-05-02T11:51:24.173Z,12.30
2019-05-02T11:53:54.386Z,12.50
2019-05-02T11:56:23.922Z,12.13
2019-05-02T11:58:54.179Z,11.84
2019-05-02T12:01:35.438Z,12.21
2019-05-02T12:03:58.424Z,12.43
2019-05-02T12:06:28.121Z,12.30
2019-05-02T12:08:58.098Z,12.28
2019-05-02T12:11:28.615Z,12.38
2019-05-02T12:14:01.543Z,12.27
2019-05-02T12:16:32.320Z,12.59
2019-05-02T12:19:11.761Z,12.61
2019-05-02T12:21:34.404Z,12.29
2019-05-02T12:24:06.740Z,11.98
2019-05-02T12:26:36.314Z,12.29
2019-05-02T12:29:05.886Z,11.96
2019-05-02T12:31:35.900Z,12.18
2019-05-02T12:34:07.536Z,12.34
2019-05-02T12:36:38.516Z,12.19
2019-05-02T12:39:09.486Z,12.56
2019-05-02T12:41:42.338Z,12.46
2019-05-02T12:44:14.281Z,12.10
2019-05-02T12:46:47.476Z,11.39
2019-05-02T12:49:26.305Z,11.77
2019-05-02T12:51:48.799Z,11.80
2019-05-02T12:54:18.627Z,11.82
2019-05-02T12:56:49.231Z,11.68
2019-05-02T12:59:19.464Z,11.60
2019-05-02T13:01:51.686Z,11.58
2019-05-02T13:04:22.988Z,11.76
2019-05-02T13:06:53.227Z,11.43
2019-05-02T13:09:23.576Z,11.74
2019-05-02T13:12:00.053Z,11.75
2019-05-02T13:14:32.167Z,11.50
2019-05-02T13:17:05.543Z,11.54
2019-05-02T13:19:39.918Z,11.79
2019-05-02T13:22:16.235Z,12.04
2019-05-02T13:24:54.946Z,12.11
2019-05-02T13:27:24.458Z,11.99
2019-05-02T13:29:54.760Z,12.12
2019-05-02T13:32:34.234Z,12.11
2019-05-02T13:35:34.342Z,12.29
2019-05-02T13:38:08.352Z,12.41
2019-05-02T13:40:45.209Z,12.02
2019-05-02T13:43:18.877Z,11.91
2019-05-02T13:46:12.592Z,11.78
2019-05-02T13:48:42.943Z,12.11
2019-05-02T13:51:16.162Z,11.99
2019-05-02T13:53:57.837Z,12.02
2019-05-02T13:56:47.879Z,11.85
2019-05-02T13:59:22.177Z,11.90
2019-05-02T14:01:53.651Z,11.68
2019-05-02T14:04:24.804Z,11.39
2019-05-02T14:06:56.150Z,11.53
2019-05-02T14:09:45.067Z,11.40
2019-05-02T14:12:21.860Z,11.71
2019-05-02T14:14:51.999Z,11.88
2019-05-02T14:17:22.943Z,11.69
2019-05-02T14:20:07.456Z,11.62
2019-05-02T14:22:25.664Z,11.55
2019-05-02T14:24:56.649Z,11.54
2019-05-02T14:27:27.356Z,11.61
2019-05-02T14:29:57.640Z,11.74
2019-05-02T14:32:28.353Z,11.50
2019-05-02T14:35:18.615Z,11.89
2019-05-02T14:38:09.614Z,11.91
2019-05-02T14:40:52.679Z,11.89
2019-05-02T14:43:46.114Z,11.73
2019-05-02T14:46:12.559Z,11.66
2019-05-02T14:48:45.300Z,11.81
2019-05-02T14:51:22.888Z,11.81
2019-05-02T14:53:52.759Z,11.62
2019-05-02T14:56:46.226Z,11.67
2019-05-02T14:59:15.166Z,11.61
2019-05-02T15:01:50.007Z,10.72
2019-05-02T15:04:22.713Z,11.01
2019-05-02T15:06:53.363Z,11.03
2019-05-02T15:09:26.825Z,11.08
2019-05-02T15:11:59.428Z,10.99
2019-05-02T15:14:37.034Z,10.87
2019-05-02T15:17:07.673Z,10.89
2019-05-02T15:19:38.431Z,10.95
2019-05-02T15:22:07.896Z,10.88
2019-05-02T15:24:38.166Z,10.90
2019-05-02T15:27:16.660Z,10.79
2019-05-02T15:29:39.387Z,10.86
2019-05-02T15:32:46.430Z,10.70
2019-05-02T15:35:42.648Z,10.46
2019-05-02T15:38:19.743Z,10.32
2019-05-02T15:40:50.054Z,10.15
2019-05-02T15:43:16.594Z,10.37
2019-05-02T15:45:46.993Z,10.26
2019-05-02T15:48:22.814Z,10.43
2019-05-02T15:50:52.980Z,10.54
2019-05-02T15:53:49.725Z,10.39
2019-05-02T15:56:20.337Z,10.34
2019-05-02T15:58:52.025Z,10.37
2019-05-02T16:01:49.110Z,10.45
2019-05-02T16:04:24.084Z,10.08
2019-05-02T16:06:53.418Z,10.06
2019-05-02T16:09:24.654Z,10.05
2019-05-02T16:11:56.870Z,10.05
2019-05-02T16:14:34.093Z,10.25
2019-05-02T16:17:01.050Z,10.36
2019-05-02T16:19:32.898Z,10.56
2019-05-02T16:22:32.405Z,10.18
2019-05-02T16:25:05.888Z,9.60
2019-05-02T16:27:49.499Z,10.30
2019-05-02T16:30:29.657Z,10.29
2019-05-02T16:33:02.672Z,10.21
2019-05-02T16:35:34.615Z,10.31
2019-05-02T16:38:04.868Z,10.32
2019-05-02T16:40:35.062Z,10.58
2019-05-02T16:43:04.831Z,10.72
2019-05-02T16:45:34.340Z,10.88
2019-05-02T16:48:05.009Z,10.71
2019-05-02T16:50:37.102Z,10.22
2019-05-02T16:53:06.963Z,10.22
2019-05-02T16:55:37.285Z,10.08
2019-05-02T16:58:07.494Z,9.91
2019-05-02T17:00:42.528Z,9.91
2019-05-02T17:03:09.277Z,9.67
2019-05-02T17:05:44.283Z,9.69
2019-05-02T17:08:27.268Z,9.60
2019-05-02T17:11:15.897Z,9.56
2019-05-02T17:13:45.753Z,9.63
2019-05-02T17:16:17.329Z,9.76
2019-05-02T17:18:48.222Z,9.50
2019-05-02T17:21:18.919Z,9.73
2019-05-02T17:23:51.931Z,9.64
2019-05-02T17:26:22.700Z,9.71
2019-05-02T17:28:53.385Z,9.71
2019-05-02T17:31:23.604Z,9.65
2019-05-02T17:33:54.945Z,9.58
2019-05-02T17:36:28.647Z,9.52
2019-05-02T17:39:03.671Z,9.41
2019-05-02T17:41:31.814Z,9.41
2019-05-02T17:44:03.259Z,9.41
2019-05-02T17:46:33.256Z,9.49
2019-05-02T17:49:04.479Z,9.45
2019-05-02T17:52:04.942Z,8.74
2019-05-02T17:54:26.424Z,9.35
2019-05-02T17:56:57.542Z,9.27
2019-05-02T17:59:33.017Z,9.23
2019-05-02T18:01:59.457Z,9.21
2019-05-02T18:04:29.569Z,9.22
2019-05-02T18:06:59.165Z,9.22
2019-05-02T18:09:31.730Z,9.13
2019-05-02T18:12:01.547Z,9.13
2019-05-02T18:14:31.646Z,9.19
2019-05-02T18:17:01.908Z,9.19
2019-05-02T18:19:32.400Z,9.18
2019-05-02T18:22:03.533Z,9.20
2019-05-02T18:24:37.387Z,9.20
2019-05-02T18:27:05.669Z,9.18
2019-05-02T18:29:41.490Z,9.11
2019-05-02T18:32:09.804Z,9.11
2019-05-02T18:34:41.692Z,9.13
2019-05-02T18:37:11.128Z,9.26
2019-05-02T18:39:49.950Z,9.19
2019-05-02T18:42:16.534Z,9.09
2019-05-02T18:44:48.195Z,8.96
2019-05-02T18:47:20.381Z,9.01
2019-05-02T18:49:53.826Z,8.95
2019-05-02T18:52:35.630Z,9.09
2019-05-02T18:54:57.401Z,9.01
2019-05-02T18:57:29.742Z,8.99
2019-05-02T19:00:02.392Z,8.99
2019-05-02T19:02:35.663Z,8.89
2019-05-02T19:05:13.416Z,8.68
2019-05-02T19:07:42.622Z,8.65
2019-05-02T19:10:12.159Z,8.70
2019-05-02T19:12:42.081Z,8.65
2019-05-02T19:15:13.358Z,8.73
2019-05-02T19:17:45.725Z,8.73
2019-05-02T19:20:58.595Z,8.77
2019-05-02T19:23:31.992Z,8.64
2019-05-02T19:26:14.963Z,8.64
2019-05-02T19:29:08.342Z,8.69
2019-05-02T19:31:46.239Z,8.76
2019-05-02T19:34:16.719Z,8.69
2019-05-02T19:36:46.320Z,8.69
2019-05-02T19:39:16.825Z,8.68
2019-05-02T19:41:47.758Z,8.60
2019-05-02T19:44:21.475Z,8.60
2019-05-02T19:46:49.328Z,8.59
2019-05-02T19:49:19.120Z,8.68
2019-05-02T19:52:08.035Z,8.72
2019-05-02T19:54:41.687Z,8.63
2019-05-02T19:58:02.410Z,6.52
2019-05-02T20:00:36.605Z,8.66
2019-05-02T20:03:04.030Z,8.78
2019-05-02T20:05:33.840Z,8.74
2019-05-02T20:08:06.504Z,8.69
2019-05-02T20:10:36.579Z,8.74
2019-05-02T20:13:07.252Z,8.66
2019-05-02T20:15:42.168Z,8.80
2019-05-02T20:18:12.073Z,8.80
2019-05-02T20:21:11.754Z,8.74
2019-05-02T20:23:43.201Z,8.77
2019-05-02T20:26:15.463Z,8.75
2019-05-02T20:28:45.771Z,8.74
2019-05-02T20:31:16.417Z,8.74
2019-05-02T20:33:46.399Z,8.70
2019-05-02T20:36:16.237Z,8.59
2019-05-02T20:38:46.238Z,8.58
2019-05-02T20:41:18.854Z,8.70
2019-05-02T20:43:48.340Z,8.67
2019-05-02T20:46:18.476Z,8.65
2019-05-02T20:48:48.578Z,8.64
2019-05-02T20:51:19.562Z,8.64
2019-05-02T20:53:52.385Z,8.59
2019-05-02T20:56:22.964Z,8.57
2019-05-02T20:58:52.978Z,8.57
2019-05-02T21:01:23.258Z,8.65
2019-05-02T21:03:53.544Z,8.67
2019-05-02T21:06:49.432Z,8.61
2019-05-02T21:09:29.647Z,8.51
2019-05-02T21:12:05.250Z,8.48
2019-05-02T21:14:39.026Z,8.51
2019-05-02T21:17:13.060Z,8.60
2019-05-02T21:19:44.450Z,8.52
2019-05-02T21:22:22.558Z,8.47
2019-05-02T21:24:53.122Z,8.48
2019-05-02T21:27:23.381Z,8.31
2019-05-02T21:29:53.487Z,8.27
2019-05-02T21:32:23.321Z,8.26
2019-05-02T21:34:53.842Z,8.37
2019-05-02T21:37:26.181Z,8.39
2019-05-02T21:39:57.799Z,8.30
2019-05-02T21:42:28.429Z,8.24
2019-05-02T21:44:58.569Z,8.24
2019-05-02T21:47:31.867Z,8.29
2019-05-02T21:50:13.918Z,8.29
2019-05-02T21:53:18.136Z,8.34
2019-05-02T21:56:12.163Z,8.18
2019-05-02T21:59:02.837Z,8.25
2019-05-02T22:01:34.149Z,8.09
2019-05-02T22:04:04.437Z,8.02
2019-05-02T22:06:38.814Z,8.02
2019-05-02T22:09:12.583Z,8.12
2019-05-02T22:11:44.304Z,8.10
2019-05-02T22:14:14.750Z,8.03
2019-05-02T22:16:46.015Z,7.96
2019-05-02T22:19:20.455Z,7.91
2019-05-02T22:21:52.451Z,7.91
2019-05-02T22:24:22.679Z,7.93
2019-05-02T22:26:53.816Z,7.76
2019-05-02T22:29:23.492Z,7.76
2019-05-02T22:31:54.526Z,7.79
2019-05-02T22:34:24.826Z,7.77
2019-05-02T22:36:55.418Z,7.86
2019-05-02T22:39:42.661Z,7.67
2019-05-02T22:42:13.346Z,7.76
2019-05-02T22:44:44.088Z,7.65
2019-05-02T22:47:14.659Z,7.62
2019-05-02T22:49:44.621Z,7.68
2019-05-02T22:52:16.230Z,7.73
2019-05-02T22:54:46.361Z,7.73
2019-05-02T22:57:16.877Z,7.72
2019-05-02T22:59:46.889Z,7.63
2019-05-02T23:02:17.308Z,7.57
2019-05-02T23:04:47.157Z,7.45
2019-05-02T23:07:17.800Z,7.43
2019-05-02T23:09:47.859Z,7.43
2019-05-02T23:12:17.699Z,7.41
2019-05-02T23:14:47.541Z,7.36
2019-05-02T23:17:19.542Z,7.26
2019-05-02T23:19:49.508Z,7.21
2019-05-02T23:22:21.782Z,7.19
2019-05-02T23:25:29.614Z,7.11
2019-05-02T23:28:03.505Z,7.11
2019-05-02T23:30:34.527Z,7.03
2019-05-02T23:33:04.717Z,6.97
2019-05-02T23:35:35.039Z,6.97
2019-05-02T23:38:04.873Z,6.92
2019-05-02T23:40:35.825Z,6.93
2019-05-02T23:43:06.353Z,6.95
2019-05-02T23:45:36.708Z,6.87
2019-05-02T23:48:06.615Z,6.87
2019-05-02T23:50:36.633Z,6.87
2019-05-02T23:53:06.755Z,6.79
2019-05-02T23:55:37.063Z,6.85
2019-05-02T23:58:07.506Z,6.85
